createdAt,value
2023-03-22T00:02:04.186Z,100944.06
2023-03-22T00:04:31.218Z,100929.53
2023-03-22T00:06:57.799Z,100927.88
2023-03-22T00:09:24.336Z,100923.31
2023-03-22T00:11:51.101Z,100926.66
2023-03-22T00:14:20.831Z,100927.50
2023-03-22T00:16:49.092Z,100916.31
2023-03-22T00:19:17.308Z,100918.41
2023-03-22T00:21:44.289Z,100910.50
2023-03-22T00:24:10.922Z,100915.50
2023-03-22T00:26:37.530Z,100901.19
2023-03-22T00:29:04.551Z,100900.53
2023-03-22T00:31:31.210Z,100895.53
2023-03-22T00:33:57.693Z,100900.13
2023-03-22T00:36:24.255Z,100898.69
2023-03-22T00:38:51.797Z,100897.22
2023-03-22T00:41:20.947Z,100888.94
2023-03-22T00:43:48.895Z,100895.19
2023-03-22T00:46:17.580Z,100895.59
2023-03-22T00:48:44.164Z,100893.56
2023-03-22T00:51:11.550Z,100888.59
2023-03-22T00:53:42.550Z,100878.25
2023-03-22T00:56:13.596Z,100881.56
2023-03-22T00:58:45.078Z,100877.88
2023-03-22T01:01:15.186Z,100877.25
2023-03-22T01:03:43.159Z,100866.25
2023-03-22T01:06:13.032Z,100867.50
2023-03-22T01:08:40.183Z,100860.03
2023-03-22T01:11:08.749Z,100862.50
2023-03-22T01:13:41.641Z,100857.72
2023-03-22T01:16:09.653Z,100848.81
2023-03-22T01:18:36.552Z,100835.94
2023-03-22T01:21:03.562Z,100843.19
2023-03-22T01:23:30.692Z,100831.38
2023-03-22T01:25:57.412Z,100824.28
2023-03-22T01:28:26.907Z,100824.28
2023-03-22T01:30:55.097Z,100822.63
2023-03-22T01:33:21.890Z,100811.00
2023-03-22T01:35:48.869Z,100815.97
2023-03-22T01:38:15.525Z,100810.56
2023-03-22T01:40:50.542Z,100806.00
2023-03-22T01:43:17.385Z,100802.91
2023-03-22T01:45:49.907Z,100790.44
2023-03-22T01:48:24.604Z,100779.84
2023-03-22T01:51:13.910Z,100778.56
2023-03-22T01:54:09.366Z,100773.19
2023-03-22T01:56:40.605Z,100766.06
2023-03-22T01:59:14.209Z,100762.78
2023-03-22T02:02:04.404Z,100759.84
2023-03-22T02:04:35.528Z,100749.44
2023-03-22T02:07:15.728Z,100744.44
2023-03-22T02:09:45.987Z,100740.69
2023-03-22T02:12:42.579Z,100741.50
2023-03-22T02:15:29.808Z,100734.84
2023-03-22T02:18:30.696Z,100731.94
2023-03-22T02:21:24.110Z,100718.66
2023-03-22T02:24:11.390Z,100721.34
2023-03-22T02:27:04.953Z,100711.00
2023-03-22T02:29:34.604Z,100712.66
2023-03-22T02:32:16.331Z,100710.78
2023-03-22T02:34:52.055Z,100707.03
2023-03-22T02:37:34.833Z,100707.44
2023-03-22T02:40:21.506Z,100702.88
2023-03-22T02:43:00.516Z,100696.22
2023-03-22T02:45:34.771Z,100690.81
2023-03-22T02:48:16.538Z,100690.81
2023-03-22T02:50:54.846Z,100686.25
2023-03-22T02:53:29.647Z,100682.94
2023-03-22T02:56:11.008Z,100672.97
2023-03-22T02:58:45.911Z,100678.97
2023-03-22T03:01:22.542Z,100673.34
2023-03-22T03:03:52.751Z,100675.81
2023-03-22T03:06:22.792Z,100668.31
2023-03-22T03:08:53.339Z,100665.16
2023-03-22T03:11:21.287Z,100664.94
2023-03-22T03:13:49.878Z,100665.34
2023-03-22T03:16:21.566Z,100664.31
2023-03-22T03:19:02.298Z,100666.19
2023-03-22T03:21:42.361Z,100661.38
2023-03-22T03:24:26.090Z,100670.53
2023-03-22T03:27:17.579Z,100666.19
2023-03-22T03:30:01.878Z,100666.63
2023-03-22T03:32:50.230Z,100671.16
2023-03-22T03:35:29.094Z,100672.03
2023-03-22T03:38:09.927Z,100669.09
2023-03-22T03:40:41.867Z,100665.34
2023-03-22T03:43:08.945Z,100656.66
2023-03-22T03:45:37.239Z,100666.53
2023-03-22T03:48:14.586Z,100666.91
2023-03-22T03:50:41.972Z,100670.00
2023-03-22T03:53:09.987Z,100660.84
2023-03-22T03:55:37.550Z,100664.53
2023-03-22T03:58:04.182Z,100664.75
2023-03-22T04:00:31.057Z,100658.31
2023-03-22T04:03:23.627Z,100656.22
2023-03-22T04:06:16.007Z,100653.50
2023-03-22T04:08:53.344Z,100662.19
2023-03-22T04:11:22.739Z,100662.19
2023-03-22T04:13:53.416Z,100666.31
2023-03-22T04:16:24.911Z,100660.09
2023-03-22T04:18:51.563Z,100659.66
2023-03-22T04:21:19.770Z,100658.47
2023-03-22T04:23:53.415Z,100657.16
2023-03-22T04:26:19.934Z,100664.22
2023-03-22T04:29:09.904Z,100652.13
2023-03-22T04:31:40.754Z,100646.31
2023-03-22T04:34:33.499Z,100637.16
2023-03-22T04:37:02.639Z,100653.72
2023-03-22T04:39:48.078Z,100641.66
2023-03-22T04:42:36.821Z,100630.84
2023-03-22T04:45:11.916Z,100625.44
2023-03-22T04:47:39.230Z,100627.31
2023-03-22T04:50:08.087Z,100624.63
2023-03-22T04:52:41.472Z,100629.78
2023-03-22T04:55:08.330Z,100630.84
2023-03-22T04:57:35.658Z,100628.38
2023-03-22T05:00:02.090Z,100627.56
2023-03-22T05:02:28.727Z,100624.38
2023-03-22T05:04:55.661Z,100616.44
2023-03-22T05:07:39.194Z,100618.69
2023-03-22T05:10:07.525Z,100613.53
2023-03-22T05:12:34.186Z,100612.91
2023-03-22T05:15:17.558Z,100606.06
2023-03-22T05:17:44.711Z,100611.25
2023-03-22T05:20:11.590Z,100615.47
2023-03-22T05:22:40.788Z,100614.63
2023-03-22T05:25:10.544Z,100610.53
2023-03-22T05:27:38.953Z,100608.50
2023-03-22T05:30:32.868Z,100610.00
2023-03-22T05:33:09.420Z,100611.88
2023-03-22T05:35:41.850Z,100605.28
2023-03-22T05:38:09.966Z,100600.69
2023-03-22T05:40:39.738Z,100600.34
2023-03-22T05:43:06.338Z,100601.63
2023-03-22T05:45:36.791Z,100596.69
2023-03-22T05:48:13.963Z,100600.63
2023-03-22T05:50:40.997Z,100600.84
2023-03-22T05:53:08.370Z,100596.50
2023-03-22T05:55:53.596Z,100597.56
2023-03-22T05:58:20.020Z,100595.47
2023-03-22T06:00:51.351Z,100593.81
2023-03-22T06:03:20.752Z,100593.34
2023-03-22T06:06:10.628Z,100590.06
2023-03-22T06:08:46.829Z,100590.88
2023-03-22T06:11:13.506Z,100597.56
2023-03-22T06:13:40.235Z,100589.84
2023-03-22T06:16:07.952Z,100584.22
2023-03-22T06:18:34.519Z,100586.94
2023-03-22T06:21:08.564Z,100583.78
2023-03-22T06:23:35.116Z,100589.78
2023-03-22T06:26:01.752Z,100590.38
2023-03-22T06:28:29.899Z,100600.34
2023-03-22T06:30:57.734Z,100589.53
2023-03-22T06:33:40.678Z,100594.72
2023-03-22T06:36:18.951Z,100591.09
2023-03-22T06:39:05.164Z,100580.13
2023-03-22T06:41:32.718Z,100580.06
2023-03-22T06:44:00.150Z,100585.22
2023-03-22T06:46:49.359Z,100591.63
2023-03-22T06:49:40.339Z,100586.69
2023-03-22T06:52:07.785Z,100573.75
2023-03-22T06:54:34.758Z,100585.31
2023-03-22T06:57:01.389Z,100585.31
2023-03-22T06:59:28.119Z,100585.31
2023-03-22T07:01:54.857Z,100595.16
2023-03-22T07:04:21.419Z,100593.78
2023-03-22T07:06:49.932Z,100592.72
2023-03-22T07:09:16.422Z,100588.63
2023-03-22T07:11:45.233Z,100588.38
2023-03-22T07:14:11.736Z,100586.72
2023-03-22T07:16:53.984Z,100580.59
2023-03-22T07:19:21.855Z,100584.34
2023-03-22T07:21:48.508Z,100591.88
2023-03-22T07:24:16.351Z,100600.94
2023-03-22T07:26:44.412Z,100599.06
2023-03-22T07:29:16.079Z,100603.06
2023-03-22T07:31:42.704Z,100590.13
2023-03-22T07:34:11.881Z,100586.13
2023-03-22T07:36:48.552Z,100590.16
2023-03-22T07:39:15.253Z,100592.25
2023-03-22T07:41:44.951Z,100584.38
2023-03-22T07:44:23.852Z,100584.97
2023-03-22T07:47:15.484Z,100581.78
2023-03-22T07:50:02.554Z,100599.94
2023-03-22T07:52:31.748Z,100591.34
2023-03-22T07:54:58.393Z,100574.06
2023-03-22T07:57:24.843Z,100585.00
2023-03-22T07:59:56.549Z,100582.91
2023-03-22T08:02:25.699Z,100588.31
2023-03-22T08:04:56.435Z,100586.78
2023-03-22T08:07:36.119Z,100591.47
2023-03-22T08:10:03.625Z,100593.91
2023-03-22T08:12:31.342Z,100588.34
2023-03-22T08:15:16.434Z,100582.28
2023-03-22T08:17:43.478Z,100584.44
2023-03-22T08:20:19.006Z,100587.06
2023-03-22T08:22:51.418Z,100598.50
2023-03-22T08:25:27.248Z,100580.91
2023-03-22T08:27:58.229Z,100587.06
2023-03-22T08:30:27.041Z,100587.56
2023-03-22T08:32:54.042Z,100578.50
2023-03-22T08:35:20.585Z,100580.31
2023-03-22T08:37:47.069Z,100577.59
2023-03-22T08:40:15.101Z,100584.75
2023-03-22T08:42:58.538Z,100580.63
2023-03-22T08:45:26.140Z,100576.53
2023-03-22T08:48:00.722Z,100576.28
2023-03-22T08:50:28.643Z,100583.81
2023-03-22T08:53:14.778Z,100563.03
2023-03-22T08:55:45.987Z,100577.41
2023-03-22T08:58:13.837Z,100558.38
2023-03-22T09:00:52.490Z,100563.66
2023-03-22T09:03:26.095Z,100582.16
2023-03-22T09:05:53.033Z,100554.28
2023-03-22T09:08:20.209Z,100576.81
2023-03-22T09:10:51.995Z,100572.88
2023-03-22T09:13:21.013Z,100585.72
2023-03-22T09:15:53.901Z,100579.97
2023-03-22T09:18:26.790Z,100585.50
2023-03-22T09:20:56.286Z,100575.16
2023-03-22T09:23:27.483Z,100574.66
2023-03-22T09:25:54.126Z,100570.91
2023-03-22T09:28:24.168Z,100582.91
2023-03-22T09:30:51.905Z,100572.41
2023-03-22T09:33:18.391Z,100579.00
2023-03-22T09:35:49.322Z,100581.59
2023-03-22T09:38:16.347Z,100588.22
2023-03-22T09:41:02.025Z,100596.72
2023-03-22T09:43:37.970Z,100581.19
2023-03-22T09:46:13.028Z,100581.66
2023-03-22T09:48:41.766Z,100586.25
2023-03-22T09:51:23.809Z,100587.69
2023-03-22T09:53:50.616Z,100584.88
2023-03-22T09:56:26.596Z,100587.94
2023-03-22T09:59:04.610Z,100588.19
2023-03-22T10:01:38.195Z,100576.44
2023-03-22T10:04:13.848Z,100577.94
2023-03-22T10:06:45.444Z,100576.88
2023-03-22T10:09:36.756Z,100570.78
2023-03-22T10:12:06.925Z,100579.59
2023-03-22T10:14:41.451Z,100579.22
2023-03-22T10:17:25.167Z,100572.16
2023-03-22T10:20:19.914Z,100565.69
2023-03-22T10:22:48.432Z,100578.41
2023-03-22T10:25:20.984Z,100565.50
2023-03-22T10:27:50.495Z,100569.22
2023-03-22T10:30:22.994Z,100570.44
2023-03-22T10:33:02.286Z,100567.97
2023-03-22T10:35:30.756Z,100572.91
2023-03-22T10:38:04.811Z,100578.31
2023-03-22T10:40:34.213Z,100581.00
2023-03-22T10:43:13.063Z,100576.19
2023-03-22T10:45:40.081Z,100575.59
2023-03-22T10:48:19.494Z,100585.25
2023-03-22T10:50:46.272Z,100589.22
2023-03-22T10:54:01.475Z,100589.91
2023-03-22T10:56:28.035Z,100578.50
2023-03-22T10:58:56.215Z,100572.63
2023-03-22T11:01:36.806Z,100580.16
2023-03-22T11:04:03.257Z,100579.09
2023-03-22T11:06:36.943Z,100568.19
2023-03-22T11:09:18.111Z,100565.25
2023-03-22T11:11:54.226Z,100568.06
2023-03-22T11:14:28.572Z,100553.56
2023-03-22T11:17:08.227Z,100555.59
2023-03-22T11:19:37.141Z,100558.06
2023-03-22T11:22:07.669Z,100561.69
2023-03-22T11:24:34.735Z,100563.47
2023-03-22T11:27:04.828Z,100564.97
2023-03-22T11:29:42.156Z,100568.75
2023-03-22T11:32:28.884Z,100549.00
2023-03-22T11:35:23.296Z,100563.34
2023-03-22T11:37:52.443Z,100555.84
2023-03-22T11:40:22.223Z,100555.59
2023-03-22T11:42:53.213Z,100551.59
2023-03-22T11:45:32.336Z,100576.28
2023-03-22T11:48:06.595Z,100561.34
2023-03-22T11:50:37.196Z,100562.50
2023-03-22T11:53:06.734Z,100564.16
2023-03-22T11:55:36.157Z,100554.97
2023-03-22T11:58:05.335Z,100563.91
2023-03-22T12:00:37.217Z,100569.56
2023-03-22T12:03:09.936Z,100574.41
2023-03-22T12:05:44.488Z,100580.06
2023-03-22T12:08:18.739Z,100583.00
2023-03-22T12:10:51.324Z,100591.13
2023-03-22T12:13:24.565Z,100583.59
2023-03-22T12:15:58.427Z,100580.88
2023-03-22T12:18:30.663Z,100577.09
2023-03-22T12:20:59.069Z,100566.88
2023-03-22T12:23:28.807Z,100574.97
2023-03-22T12:26:12.527Z,100569.66
2023-03-22T12:28:55.632Z,100569.47
2023-03-22T12:31:33.209Z,100571.94
2023-03-22T12:34:04.832Z,100577.34
2023-03-22T12:36:48.116Z,100573.56
2023-03-22T12:39:37.162Z,100575.22
2023-03-22T12:42:12.958Z,100575.78
2023-03-22T12:44:44.760Z,100564.97
2023-03-22T12:47:29.950Z,100562.25
2023-03-22T12:50:05.933Z,100560.63
2023-03-22T12:52:45.639Z,100568.25
2023-03-22T12:55:36.607Z,100554.72
2023-03-22T12:58:06.493Z,100556.34
2023-03-22T13:00:51.204Z,100567.78
2023-03-22T13:03:18.079Z,100559.41
2023-03-22T13:05:46.935Z,100549.97
2023-03-22T13:08:23.583Z,100554.94
2023-03-22T13:11:04.502Z,100565.28
2023-03-22T13:13:42.553Z,100562.09
2023-03-22T13:16:09.145Z,100560.22
2023-03-22T13:18:35.720Z,100564.31
2023-03-22T13:21:22.070Z,100561.03
2023-03-22T13:24:02.076Z,100566.44
2023-03-22T13:26:37.450Z,100565.63
2023-03-22T13:29:19.485Z,100567.50
2023-03-22T13:31:51.780Z,100562.09
2023-03-22T13:34:31.344Z,100560.44
2023-03-22T13:36:59.218Z,100565.38
2023-03-22T13:39:34.543Z,100555.38
2023-03-22T13:42:22.083Z,100561.59
2023-03-22T13:45:03.456Z,100558.41
2023-03-22T13:47:36.143Z,100561.13
2023-03-22T13:50:13.463Z,100571.38
2023-03-22T13:52:43.729Z,100562.19
2023-03-22T13:55:36.306Z,100563.25
2023-03-22T13:58:05.512Z,100556.44
2023-03-22T14:00:31.858Z,100555.03
2023-03-22T14:03:11.640Z,100550.69
2023-03-22T14:05:39.073Z,100548.78
2023-03-22T14:08:06.397Z,100555.63
2023-03-22T14:10:51.260Z,100555.03
2023-03-22T14:13:39.262Z,100545.25
2023-03-22T14:16:18.124Z,100546.91
2023-03-22T14:18:47.047Z,100544.44
2023-03-22T14:21:23.325Z,100543.63
